Menaam, Netherlands
Current Conditions -  °F | °C
As of 8:05 PM on Tuesday 27 Jan 2015 (Local Time) from EHLW Reporting Station
Haze Haze  
Wind Chill: 31°   Ceiling: 1200
Heat Index: 36°   Visibility: 6mi
Dew Point: 36°   Wind: 6mph
Humidity: 100%   Direction: 240°WSW
Pressure: 30.12"   Gusts: NA
Location:  53.22°N, 5.66°E
Report Text: EHLW 271905Z AUTO 24005KT 9000 BR NCD 02/02 Q1020 BLU 27008KT 7000 SCT008 BKN012
Loading
Personal Weather Stations






























Interactive Weather Map New forecast layout! Learn more

10-Day Weather Forecast

Advertisements
Track Severe Weather on mobile